Detall de PIREP

Printer-friendly versionPDF version

[2014/12/03 09:32:00]
Flight IATA:CT3127
Pilot Number:042
Company ICAO:CAT
Aircraft Type:B463/A
PAX:22
Aircraft Registration:PAX
Departing Airport: LEZG
Destination Airport: LFMP
Alternate Airport:LEGE
Online: VATSIM
Route:SURCO UM601 RONKO UN871 TOU G393 FINOT G36 ORBIL
Flight Level:F180
No Slew and time accel
No pause
Crash detect
Detect pilot in Cockpit between each 30 and 45 minutes
09:32 Zero fuel Weight: 80443 Lbs, Fuel Weight: 20451 Lbs
09:32 VATSIM:LEZG 030900Z 31014KT 9999 FEW035 07/01 Q1012
09:32 VATSIM:LFMP 030900Z 31016G29KT 280V340 9999 FEW040 BKN170 09/M01 Q1012 NOSIG
09:36 Parking Brakes off
09:53 Take-off
09:53 Take off Weight: 100266 Lbs
09:53 Wind: 313º @ 015 Knots Heading: 301º
09:53 POS N41º 39´ 46´´ W001º 01´ 31´´
09:53 Flaps:2 at 157 Knots
09:53 Gear Up: 156 Knots
09:54 Flaps:1 at 151 Knots
09:55 Flaps:0 at 194 Knots
10:00 TOC
10:00 Fuel Weight: 18226 Lb
10:08 Wind:359º@011 Knots Heading: 296º Ground Speed: 327 Knots Altitude 18015 ft
10:23 Wind:336º@009 Knots Heading: 059º Ground Speed: 331 Knots Altitude 18100 ft
10:38 Wind:327º@005 Knots Heading: 122º Ground Speed: 338 Knots Altitude 18100 ft
10:44 TOD
10:44 Fuel Weight: 15131 Lb
10:53 Wind:308º@009 Knots Heading: 184º Ground Speed: 240 Knots Altitude 5977 ft
10:53 Flaps:1 at 197 Knots
10:59 Gear Down: 178 Knots
10:59 Flaps:2 at 177 Knots
10:59 Flaps:3 at 181 Knots
11:00 Flaps:4 at 168 Knots
11:03 TouchDown:Rate -355 ft/min Speed: 116 Knots
11:03 VATSIM:LFMP 031030Z 31015G27KT 9999 FEW040 BKN150 10/M00 Q1012 NOSIG
11:03 Land
11:03 Wind:310º@023 Knots
11:03 Heading: 327º
11:03 Flight Duration: 01:10
11:03 Landing Weight: 94684 Lbs
11:03 POS N42º 44´ 50´´ E002º 52´ 02´´
11:07 Parking brakes on
11:07 Block to Block Duration: 01:31
11:07 Final Fuel: 13776 Lbls
11:07 Spent Fuel: 6675 Lbls
11:07 Flight Length: 337 NM
11:07 TOD Land Length: 68 NM

Exportar CSV

Powered by Drupal - Modified by Danger4k